sensor_id;sensor_type;location;lat;lon;timestamp;P1;durP1;ratioP1;P2;durP2;ratioP2
36351;SDS011;22382;44.768;17.206;2022-12-18T00:01:16;64.05;;;33.10;;
36351;SDS011;22382;44.768;17.206;2022-12-18T00:03:46;65.32;;;33.28;;
36351;SDS011;22382;44.768;17.206;2022-12-18T00:06:15;63.78;;;34.25;;
36351;SDS011;22382;44.768;17.206;2022-12-18T00:08:44;64.03;;;33.65;;
36351;SDS011;22382;44.768;17.206;2022-12-18T00:11:13;61.90;;;32.67;;
36351;SDS011;22382;44.768;17.206;2022-12-18T00:13:42;61.90;;;32.00;;
36351;SDS011;22382;44.768;17.206;2022-12-18T00:16:11;61.03;;;32.78;;
36351;SDS011;22382;44.768;17.206;2022-12-18T00:18:47;62.38;;;33.38;;
36351;SDS011;22382;44.768;17.206;2022-12-18T00:21:15;59.22;;;31.88;;
36351;SDS011;22382;44.768;17.206;2022-12-18T00:23:43;58.63;;;31.17;;
36351;SDS011;22382;44.768;17.206;2022-12-18T00:26:12;60.25;;;32.58;;
36351;SDS011;22382;44.768;17.206;2022-12-18T00:28:44;61.20;;;30.48;;
36351;SDS011;22382;44.768;17.206;2022-12-18T00:31:12;53.33;;;29.27;;
36351;SDS011;22382;44.768;17.206;2022-12-18T00:33:41;54.15;;;29.83;;
36351;SDS011;22382;44.768;17.206;2022-12-18T00:36:12;47.13;;;25.95;;
36351;SDS011;22382;44.768;17.206;2022-12-18T00:38:44;48.47;;;26.25;;
36351;SDS011;22382;44.768;17.206;2022-12-18T00:41:12;48.20;;;26.55;;
36351;SDS011;22382;44.768;17.206;2022-12-18T00:43:40;43.80;;;25.42;;
36351;SDS011;22382;44.768;17.206;2022-12-18T00:46:07;48.72;;;25.10;;
36351;SDS011;22382;44.768;17.206;2022-12-18T00:48:34;51.58;;;27.27;;
36351;SDS011;22382;44.768;17.206;2022-12-18T00:51:01;53.50;;;27.08;;
36351;SDS011;22382;44.768;17.206;2022-12-18T00:53:29;52.15;;;27.50;;
36351;SDS011;22382;44.768;17.206;2022-12-18T00:55:56;55.53;;;30.13;;
36351;SDS011;22382;44.768;17.206;2022-12-18T00:58:23;54.25;;;29.27;;
36351;SDS011;22382;44.768;17.206;2022-12-18T01:00:50;52.70;;;29.08;;
36351;SDS011;22382;44.768;17.206;2022-12-18T01:03:17;50.55;;;27.98;;
36351;SDS011;22382;44.768;17.206;2022-12-18T01:05:44;54.22;;;29.42;;
36351;SDS011;22382;44.768;17.206;2022-12-18T01:08:11;53.38;;;29.10;;
36351;SDS011;22382;44.768;17.206;2022-12-18T01:10:41;50.88;;;27.80;;
36351;SDS011;22382;44.768;17.206;2022-12-18T01:13:08;52.80;;;28.20;;
36351;SDS011;22382;44.768;17.206;2022-12-18T01:15:35;51.03;;;27.88;;
36351;SDS011;22382;44.768;17.206;2022-12-18T01:18:02;53.45;;;28.90;;
36351;SDS011;22382;44.768;17.206;2022-12-18T01:20:29;58.47;;;30.33;;
36351;SDS011;22382;44.768;17.206;2022-12-18T01:22:56;50.67;;;26.73;;
36351;SDS011;22382;44.768;17.206;2022-12-18T01:25:23;58.80;;;30.65;;
36351;SDS011;22382;44.768;17.206;2022-12-18T01:27:50;57.70;;;30.77;;
36351;SDS011;22382;44.768;17.206;2022-12-18T01:30:18;57.97;;;29.60;;
36351;SDS011;22382;44.768;17.206;2022-12-18T01:32:45;50.63;;;27.75;;
36351;SDS011;22382;44.768;17.206;2022-12-18T01:35:12;62.38;;;31.17;;
36351;SDS011;22382;44.768;17.206;2022-12-18T01:37:39;60.95;;;30.83;;
36351;SDS011;22382;44.768;17.206;2022-12-18T01:40:06;62.50;;;31.38;;
36351;SDS011;22382;44.768;17.206;2022-12-18T01:42:34;56.40;;;29.63;;
36351;SDS011;22382;44.768;17.206;2022-12-18T01:47:44;58.10;;;30.35;;
36351;SDS011;22382;44.768;17.206;2022-12-18T01:50:54;57.13;;;30.23;;
36351;SDS011;22382;44.768;17.206;2022-12-18T01:53:10;61.15;;;31.58;;
36351;SDS011;22382;44.768;17.206;2022-12-18T01:58:08;57.22;;;30.90;;
36351;SDS011;22382;44.768;17.206;2022-12-18T02:00:36;59.50;;;31.33;;
36351;SDS011;22382;44.768;17.206;2022-12-18T02:03:03;58.17;;;31.00;;
36351;SDS011;22382;44.768;17.206;2022-12-18T02:08:10;60.28;;;30.55;;
36351;SDS011;22382;44.768;17.206;2022-12-18T02:10:54;61.20;;;31.27;;
36351;SDS011;22382;44.768;17.206;2022-12-18T02:16:52;61.33;;;29.63;;
36351;SDS011;22382;44.768;17.206;2022-12-18T02:22:59;41.83;;;21.37;;
36351;SDS011;22382;44.768;17.206;2022-12-18T02:28:21;51.05;;;26.15;;
36351;SDS011;22382;44.768;17.206;2022-12-18T02:30:53;46.88;;;25.48;;
36351;SDS011;22382;44.768;17.206;2022-12-18T02:33:25;46.63;;;26.05;;
36351;SDS011;22382;44.768;17.206;2022-12-18T02:35:54;46.30;;;24.60;;
36351;SDS011;22382;44.768;17.206;2022-12-18T02:38:22;42.53;;;23.60;;
36351;SDS011;22382;44.768;17.206;2022-12-18T02:40:50;47.22;;;24.52;;
36351;SDS011;22382;44.768;17.206;2022-12-18T02:43:19;47.22;;;24.95;;
36351;SDS011;22382;44.768;17.206;2022-12-18T02:51:50;46.33;;;25.73;;
36351;SDS011;22382;44.768;17.206;2022-12-18T02:54:34;47.30;;;25.33;;
36351;SDS011;22382;44.768;17.206;2022-12-18T02:57:40;46.15;;;25.13;;
36351;SDS011;22382;44.768;17.206;2022-12-18T03:00:14;46.75;;;25.38;;
36351;SDS011;22382;44.768;17.206;2022-12-18T03:05:23;49.35;;;25.23;;
36351;SDS011;22382;44.768;17.206;2022-12-18T03:07:58;44.55;;;24.00;;
36351;SDS011;22382;44.768;17.206;2022-12-18T03:10:46;50.20;;;25.00;;
36351;SDS011;22382;44.768;17.206;2022-12-18T03:13:20;48.60;;;24.70;;
36351;SDS011;22382;44.768;17.206;2022-12-18T03:16:11;45.75;;;24.75;;
36351;SDS011;22382;44.768;17.206;2022-12-18T03:18:44;51.53;;;26.57;;
36351;SDS011;22382;44.768;17.206;2022-12-18T03:21:19;47.20;;;24.60;;
36351;SDS011;22382;44.768;17.206;2022-12-18T03:23:52;49.15;;;24.77;;
36351;SDS011;22382;44.768;17.206;2022-12-18T03:26:22;53.78;;;26.17;;
36351;SDS011;22382;44.768;17.206;2022-12-18T03:29:00;48.35;;;25.63;;
36351;SDS011;22382;44.768;17.206;2022-12-18T03:31:34;48.88;;;25.70;;
36351;SDS011;22382;44.768;17.206;2022-12-18T03:34:09;56.53;;;28.55;;
36351;SDS011;22382;44.768;17.206;2022-12-18T03:36:58;59.67;;;29.15;;
36351;SDS011;22382;44.768;17.206;2022-12-18T03:39:25;52.40;;;27.45;;
36351;SDS011;22382;44.768;17.206;2022-12-18T03:41:57;57.05;;;29.00;;
36351;SDS011;22382;44.768;17.206;2022-12-18T03:44:53;61.70;;;29.20;;
36351;SDS011;22382;44.768;17.206;2022-12-18T03:52:41;57.88;;;31.83;;
36351;SDS011;22382;44.768;17.206;2022-12-18T03:55:16;60.30;;;30.92;;
36351;SDS011;22382;44.768;17.206;2022-12-18T03:57:46;64.40;;;31.55;;
36351;SDS011;22382;44.768;17.206;2022-12-18T04:00:15;55.15;;;28.27;;
36351;SDS011;22382;44.768;17.206;2022-12-18T04:02:54;54.05;;;28.05;;
36351;SDS011;22382;44.768;17.206;2022-12-18T04:05:23;57.95;;;29.77;;
36351;SDS011;22382;44.768;17.206;2022-12-18T04:07:52;68.85;;;34.17;;
36351;SDS011;22382;44.768;17.206;2022-12-18T04:10:21;67.90;;;32.72;;
36351;SDS011;22382;44.768;17.206;2022-12-18T04:12:48;72.50;;;33.88;;
36351;SDS011;22382;44.768;17.206;2022-12-18T04:15:15;88.13;;;40.67;;
36351;SDS011;22382;44.768;17.206;2022-12-18T04:17:48;82.07;;;38.28;;
36351;SDS011;22382;44.768;17.206;2022-12-18T04:20:16;68.60;;;34.13;;
36351;SDS011;22382;44.768;17.206;2022-12-18T04:22:43;66.88;;;32.63;;
36351;SDS011;22382;44.768;17.206;2022-12-18T04:25:11;62.83;;;30.60;;
36351;SDS011;22382;44.768;17.206;2022-12-18T04:27:38;64.80;;;32.92;;
36351;SDS011;22382;44.768;17.206;2022-12-18T04:30:06;58.45;;;30.08;;
36351;SDS011;22382;44.768;17.206;2022-12-18T04:32:34;64.43;;;31.85;;
36351;SDS011;22382;44.768;17.206;2022-12-18T04:35:01;62.28;;;30.70;;
36351;SDS011;22382;44.768;17.206;2022-12-18T04:37:30;60.13;;;30.70;;
36351;SDS011;22382;44.768;17.206;2022-12-18T04:39:57;61.58;;;32.15;;
36351;SDS011;22382;44.768;17.206;2022-12-18T04:42:24;60.42;;;30.40;;
36351;SDS011;22382;44.768;17.206;2022-12-18T04:44:51;60.85;;;30.30;;
36351;SDS011;22382;44.768;17.206;2022-12-18T04:47:18;58.72;;;30.08;;
36351;SDS011;22382;44.768;17.206;2022-12-18T04:49:45;59.20;;;30.10;;
36351;SDS011;22382;44.768;17.206;2022-12-18T04:52:12;57.75;;;29.20;;
36351;SDS011;22382;44.768;17.206;2022-12-18T04:54:39;52.55;;;28.42;;
36351;SDS011;22382;44.768;17.206;2022-12-18T04:57:06;59.28;;;30.92;;
36351;SDS011;22382;44.768;17.206;2022-12-18T04:59:33;57.40;;;29.63;;
36351;SDS011;22382;44.768;17.206;2022-12-18T05:02:00;60.65;;;30.40;;
36351;SDS011;22382;44.768;17.206;2022-12-18T05:04:27;67.13;;;34.08;;
36351;SDS011;22382;44.768;17.206;2022-12-18T05:06:54;71.78;;;37.55;;
36351;SDS011;22382;44.768;17.206;2022-12-18T05:09:21;67.80;;;34.83;;
36351;SDS011;22382;44.768;17.206;2022-12-18T05:11:49;66.18;;;33.47;;
36351;SDS011;22382;44.768;17.206;2022-12-18T05:14:16;69.97;;;33.72;;
36351;SDS011;22382;44.768;17.206;2022-12-18T05:16:43;64.35;;;34.10;;
36351;SDS011;22382;44.768;17.206;2022-12-18T05:19:10;65.45;;;33.30;;
36351;SDS011;22382;44.768;17.206;2022-12-18T05:21:38;64.53;;;33.63;;
36351;SDS011;22382;44.768;17.206;2022-12-18T05:24:05;73.55;;;34.13;;
36351;SDS011;22382;44.768;17.206;2022-12-18T05:26:32;68.88;;;34.58;;
36351;SDS011;22382;44.768;17.206;2022-12-18T05:28:59;60.13;;;30.38;;
36351;SDS011;22382;44.768;17.206;2022-12-18T05:31:26;60.30;;;30.75;;
36351;SDS011;22382;44.768;17.206;2022-12-18T05:33:53;63.67;;;33.42;;
36351;SDS011;22382;44.768;17.206;2022-12-18T05:36:20;57.33;;;28.75;;
36351;SDS011;22382;44.768;17.206;2022-12-18T05:38:47;54.92;;;28.58;;
36351;SDS011;22382;44.768;17.206;2022-12-18T05:41:14;48.17;;;25.13;;
36351;SDS011;22382;44.768;17.206;2022-12-18T05:43:42;56.60;;;27.25;;
36351;SDS011;22382;44.768;17.206;2022-12-18T05:46:13;47.92;;;25.15;;
36351;SDS011;22382;44.768;17.206;2022-12-18T05:48:43;52.20;;;25.98;;
36351;SDS011;22382;44.768;17.206;2022-12-18T05:51:12;54.05;;;26.83;;
36351;SDS011;22382;44.768;17.206;2022-12-18T05:53:41;48.03;;;25.92;;
36351;SDS011;22382;44.768;17.206;2022-12-18T05:56:10;56.47;;;27.50;;
36351;SDS011;22382;44.768;17.206;2022-12-18T05:58:38;61.97;;;30.38;;
36351;SDS011;22382;44.768;17.206;2022-12-18T06:01:13;55.00;;;28.55;;
36351;SDS011;22382;44.768;17.206;2022-12-18T06:03:43;58.53;;;29.60;;
36351;SDS011;22382;44.768;17.206;2022-12-18T06:06:15;60.13;;;30.10;;
36351;SDS011;22382;44.768;17.206;2022-12-18T06:08:46;58.55;;;28.30;;
36351;SDS011;22382;44.768;17.206;2022-12-18T06:11:15;59.40;;;30.38;;
36351;SDS011;22382;44.768;17.206;2022-12-18T06:13:44;59.70;;;28.33;;
36351;SDS011;22382;44.768;17.206;2022-12-18T06:16:12;56.97;;;28.88;;
36351;SDS011;22382;44.768;17.206;2022-12-18T06:18:39;52.78;;;28.75;;
36351;SDS011;22382;44.768;17.206;2022-12-18T06:21:06;61.30;;;30.58;;
36351;SDS011;22382;44.768;17.206;2022-12-18T06:23:33;61.70;;;31.65;;
36351;SDS011;22382;44.768;17.206;2022-12-18T06:26:04;59.35;;;31.10;;
36351;SDS011;22382;44.768;17.206;2022-12-18T06:28:33;50.00;;;24.17;;
36351;SDS011;22382;44.768;17.206;2022-12-18T06:31:02;56.13;;;28.52;;
36351;SDS011;22382;44.768;17.206;2022-12-18T06:33:30;57.92;;;29.40;;
36351;SDS011;22382;44.768;17.206;2022-12-18T06:36:01;50.90;;;26.75;;
36351;SDS011;22382;44.768;17.206;2022-12-18T06:38:38;52.70;;;27.85;;
36351;SDS011;22382;44.768;17.206;2022-12-18T06:41:12;55.30;;;28.40;;
36351;SDS011;22382;44.768;17.206;2022-12-18T06:43:43;47.90;;;26.85;;
36351;SDS011;22382;44.768;17.206;2022-12-18T06:46:10;55.65;;;28.40;;
36351;SDS011;22382;44.768;17.206;2022-12-18T06:48:39;51.03;;;26.65;;
36351;SDS011;22382;44.768;17.206;2022-12-18T06:51:06;53.92;;;28.40;;
36351;SDS011;22382;44.768;17.206;2022-12-18T06:53:33;60.25;;;29.27;;
36351;SDS011;22382;44.768;17.206;2022-12-18T06:56:05;55.20;;;27.95;;
36351;SDS011;22382;44.768;17.206;2022-12-18T06:58:36;56.75;;;30.15;;
36351;SDS011;22382;44.768;17.206;2022-12-18T07:01:05;55.25;;;28.80;;
36351;SDS011;22382;44.768;17.206;2022-12-18T07:03:34;55.38;;;28.63;;
36351;SDS011;22382;44.768;17.206;2022-12-18T07:06:03;52.50;;;27.85;;
36351;SDS011;22382;44.768;17.206;2022-12-18T07:08:30;56.40;;;28.60;;
36351;SDS011;22382;44.768;17.206;2022-12-18T07:10:58;54.95;;;28.92;;
36351;SDS011;22382;44.768;17.206;2022-12-18T07:13:25;56.47;;;29.27;;
36351;SDS011;22382;44.768;17.206;2022-12-18T07:15:53;54.00;;;28.23;;
36351;SDS011;22382;44.768;17.206;2022-12-18T07:18:20;55.10;;;28.98;;
36351;SDS011;22382;44.768;17.206;2022-12-18T07:20:47;58.05;;;30.55;;
36351;SDS011;22382;44.768;17.206;2022-12-18T07:23:14;50.33;;;26.25;;
36351;SDS011;22382;44.768;17.206;2022-12-18T07:25:41;53.22;;;29.38;;
36351;SDS011;22382;44.768;17.206;2022-12-18T07:28:08;61.97;;;31.55;;
36351;SDS011;22382;44.768;17.206;2022-12-18T07:30:42;55.33;;;29.00;;
36351;SDS011;22382;44.768;17.206;2022-12-18T07:33:09;54.95;;;28.15;;
36351;SDS011;22382;44.768;17.206;2022-12-18T07:35:36;50.10;;;25.63;;
36351;SDS011;22382;44.768;17.206;2022-12-18T07:38:04;42.55;;;22.75;;
36351;SDS011;22382;44.768;17.206;2022-12-18T07:40:31;40.63;;;22.58;;
36351;SDS011;22382;44.768;17.206;2022-12-18T07:42:58;44.10;;;23.33;;
36351;SDS011;22382;44.768;17.206;2022-12-18T07:45:25;43.30;;;22.98;;
36351;SDS011;22382;44.768;17.206;2022-12-18T07:47:52;48.08;;;25.52;;
36351;SDS011;22382;44.768;17.206;2022-12-18T07:50:19;49.97;;;25.85;;
36351;SDS011;22382;44.768;17.206;2022-12-18T07:52:46;46.38;;;26.30;;
36351;SDS011;22382;44.768;17.206;2022-12-18T07:55:13;52.25;;;26.35;;
36351;SDS011;22382;44.768;17.206;2022-12-18T07:57:40;50.90;;;26.85;;
36351;SDS011;22382;44.768;17.206;2022-12-18T08:00:17;54.05;;;29.15;;
36351;SDS011;22382;44.768;17.206;2022-12-18T08:02:44;55.90;;;31.08;;
36351;SDS011;22382;44.768;17.206;2022-12-18T08:05:11;67.00;;;33.88;;
36351;SDS011;22382;44.768;17.206;2022-12-18T08:07:39;54.38;;;29.50;;
36351;SDS011;22382;44.768;17.206;2022-12-18T08:10:06;49.67;;;27.17;;
36351;SDS011;22382;44.768;17.206;2022-12-18T08:12:34;48.20;;;27.05;;
36351;SDS011;22382;44.768;17.206;2022-12-18T08:15:01;50.20;;;26.95;;
36351;SDS011;22382;44.768;17.206;2022-12-18T08:17:28;47.70;;;26.83;;
36351;SDS011;22382;44.768;17.206;2022-12-18T08:19:56;53.75;;;28.98;;
36351;SDS011;22382;44.768;17.206;2022-12-18T08:22:23;47.10;;;26.70;;
36351;SDS011;22382;44.768;17.206;2022-12-18T08:24:50;50.17;;;28.00;;
36351;SDS011;22382;44.768;17.206;2022-12-18T08:27:17;56.03;;;29.50;;
36351;SDS011;22382;44.768;17.206;2022-12-18T08:30:00;56.10;;;28.80;;
36351;SDS011;22382;44.768;17.206;2022-12-18T08:32:27;48.03;;;26.17;;
36351;SDS011;22382;44.768;17.206;2022-12-18T08:34:54;52.35;;;26.63;;
36351;SDS011;22382;44.768;17.206;2022-12-18T08:37:21;41.30;;;22.75;;
36351;SDS011;22382;44.768;17.206;2022-12-18T08:39:49;42.25;;;23.50;;
36351;SDS011;22382;44.768;17.206;2022-12-18T08:42:16;41.28;;;21.73;;
36351;SDS011;22382;44.768;17.206;2022-12-18T08:45:01;44.20;;;23.83;;
36351;SDS011;22382;44.768;17.206;2022-12-18T08:47:28;45.85;;;25.08;;
36351;SDS011;22382;44.768;17.206;2022-12-18T08:49:55;48.50;;;25.98;;
36351;SDS011;22382;44.768;17.206;2022-12-18T08:52:22;46.45;;;25.05;;
36351;SDS011;22382;44.768;17.206;2022-12-18T08:54:49;44.83;;;25.55;;
36351;SDS011;22382;44.768;17.206;2022-12-18T08:57:17;47.28;;;24.60;;
36351;SDS011;22382;44.768;17.206;2022-12-18T08:59:44;54.47;;;29.10;;
36351;SDS011;22382;44.768;17.206;2022-12-18T09:02:11;55.33;;;30.05;;
36351;SDS011;22382;44.768;17.206;2022-12-18T09:04:38;71.25;;;38.90;;
36351;SDS011;22382;44.768;17.206;2022-12-18T09:07:06;70.38;;;38.40;;
36351;SDS011;22382;44.768;17.206;2022-12-18T09:09:33;67.32;;;37.80;;
36351;SDS011;22382;44.768;17.206;2022-12-18T09:12:00;73.35;;;41.55;;
36351;SDS011;22382;44.768;17.206;2022-12-18T09:14:27;65.93;;;39.38;;
36351;SDS011;22382;44.768;17.206;2022-12-18T09:16:54;76.72;;;40.20;;
36351;SDS011;22382;44.768;17.206;2022-12-18T09:19:21;68.28;;;37.65;;
36351;SDS011;22382;44.768;17.206;2022-12-18T09:21:48;68.35;;;37.05;;
36351;SDS011;22382;44.768;17.206;2022-12-18T09:24:15;67.63;;;37.75;;
36351;SDS011;22382;44.768;17.206;2022-12-18T09:26:43;63.50;;;34.22;;
36351;SDS011;22382;44.768;17.206;2022-12-18T09:29:13;69.15;;;36.05;;
36351;SDS011;22382;44.768;17.206;2022-12-18T09:31:43;63.08;;;34.33;;
36351;SDS011;22382;44.768;17.206;2022-12-18T09:34:10;58.55;;;34.35;;
36351;SDS011;22382;44.768;17.206;2022-12-18T09:36:37;68.47;;;35.78;;
36351;SDS011;22382;44.768;17.206;2022-12-18T09:39:04;58.42;;;32.47;;
36351;SDS011;22382;44.768;17.206;2022-12-18T09:44:27;59.78;;;32.95;;
36351;SDS011;22382;44.768;17.206;2022-12-18T09:47:11;61.80;;;33.97;;
36351;SDS011;22382;44.768;17.206;2022-12-18T09:49:44;60.80;;;33.05;;
36351;SDS011;22382;44.768;17.206;2022-12-18T09:52:14;63.13;;;32.67;;
36351;SDS011;22382;44.768;17.206;2022-12-18T09:54:44;59.25;;;31.58;;
36351;SDS011;22382;44.768;17.206;2022-12-18T09:57:17;55.20;;;30.20;;
36351;SDS011;22382;44.768;17.206;2022-12-18T09:59:51;58.38;;;32.03;;
36351;SDS011;22382;44.768;17.206;2022-12-18T10:02:23;55.90;;;31.13;;
36351;SDS011;22382;44.768;17.206;2022-12-18T10:10:26;45.67;;;24.95;;
36351;SDS011;22382;44.768;17.206;2022-12-18T10:13:09;54.13;;;28.67;;
36351;SDS011;22382;44.768;17.206;2022-12-18T10:21:39;52.00;;;28.80;;
36351;SDS011;22382;44.768;17.206;2022-12-18T10:24:18;52.90;;;27.55;;
36351;SDS011;22382;44.768;17.206;2022-12-18T10:26:54;53.50;;;29.27;;
36351;SDS011;22382;44.768;17.206;2022-12-18T10:29:26;48.00;;;26.50;;
36351;SDS011;22382;44.768;17.206;2022-12-18T10:31:53;45.63;;;25.95;;
36351;SDS011;22382;44.768;17.206;2022-12-18T10:34:20;48.58;;;24.73;;
36351;SDS011;22382;44.768;17.206;2022-12-18T10:36:47;46.17;;;24.63;;
36351;SDS011;22382;44.768;17.206;2022-12-18T10:39:16;39.40;;;22.23;;
36351;SDS011;22382;44.768;17.206;2022-12-18T10:41:56;41.90;;;23.52;;
36351;SDS011;22382;44.768;17.206;2022-12-18T10:44:38;44.20;;;22.63;;
36351;SDS011;22382;44.768;17.206;2022-12-18T10:47:06;39.25;;;21.73;;
36351;SDS011;22382;44.768;17.206;2022-12-18T10:49:50;44.85;;;23.60;;
36351;SDS011;22382;44.768;17.206;2022-12-18T10:52:22;38.17;;;21.80;;
36351;SDS011;22382;44.768;17.206;2022-12-18T10:54:53;38.10;;;20.38;;
36351;SDS011;22382;44.768;17.206;2022-12-18T11:00:20;38.47;;;21.50;;
36351;SDS011;22382;44.768;17.206;2022-12-18T11:02:49;39.72;;;21.85;;
36351;SDS011;22382;44.768;17.206;2022-12-18T11:05:30;40.65;;;21.40;;
36351;SDS011;22382;44.768;17.206;2022-12-18T11:08:00;39.42;;;20.30;;
36351;SDS011;22382;44.768;17.206;2022-12-18T11:12:55;34.28;;;18.23;;
36351;SDS011;22382;44.768;17.206;2022-12-18T11:15:35;32.38;;;16.65;;
36351;SDS011;22382;44.768;17.206;2022-12-18T11:18:02;27.83;;;16.67;;
36351;SDS011;22382;44.768;17.206;2022-12-18T11:20:32;31.55;;;15.82;;
36351;SDS011;22382;44.768;17.206;2022-12-18T11:23:03;27.65;;;14.50;;
36351;SDS011;22382;44.768;17.206;2022-12-18T11:25:32;25.45;;;13.18;;
36351;SDS011;22382;44.768;17.206;2022-12-18T11:28:02;24.35;;;13.20;;
36351;SDS011;22382;44.768;17.206;2022-12-18T11:30:32;26.92;;;12.02;;
36351;SDS011;22382;44.768;17.206;2022-12-18T11:33:37;19.38;;;11.35;;
36351;SDS011;22382;44.768;17.206;2022-12-18T11:35:57;20.65;;;10.85;;
36351;SDS011;22382;44.768;17.206;2022-12-18T11:38:34;18.95;;;10.32;;
36351;SDS011;22382;44.768;17.206;2022-12-18T11:44:27;16.75;;;9.43;;
36351;SDS011;22382;44.768;17.206;2022-12-18T11:47:03;14.88;;;8.52;;
36351;SDS011;22382;44.768;17.206;2022-12-18T11:49:55;13.60;;;8.23;;
36351;SDS011;22382;44.768;17.206;2022-12-18T11:52:34;12.15;;;7.03;;
36351;SDS011;22382;44.768;17.206;2022-12-18T11:55:09;12.95;;;7.40;;
36351;SDS011;22382;44.768;17.206;2022-12-18T12:00:13;14.15;;;7.93;;
36351;SDS011;22382;44.768;17.206;2022-12-18T12:13:23;11.93;;;6.55;;
36351;SDS011;22382;44.768;17.206;2022-12-18T12:21:36;16.77;;;8.77;;
36351;SDS011;22382;44.768;17.206;2022-12-18T12:40:29;15.13;;;8.10;;
36351;SDS011;22382;44.768;17.206;2022-12-18T12:43:41;14.43;;;7.93;;
36351;SDS011;22382;44.768;17.206;2022-12-18T12:46:17;16.75;;;7.97;;
36351;SDS011;22382;44.768;17.206;2022-12-18T12:48:48;11.57;;;6.97;;
36351;SDS011;22382;44.768;17.206;2022-12-18T12:51:20;15.68;;;7.40;;
36351;SDS011;22382;44.768;17.206;2022-12-18T12:53:54;15.38;;;7.65;;
36351;SDS011;22382;44.768;17.206;2022-12-18T12:56:24;14.32;;;7.57;;
36351;SDS011;22382;44.768;17.206;2022-12-18T13:02:23;15.68;;;8.68;;
36351;SDS011;22382;44.768;17.206;2022-12-18T13:07:41;16.60;;;9.30;;
36351;SDS011;22382;44.768;17.206;2022-12-18T13:10:33;20.17;;;8.70;;
36351;SDS011;22382;44.768;17.206;2022-12-18T13:13:06;15.32;;;8.55;;
36351;SDS011;22382;44.768;17.206;2022-12-18T13:20:46;13.85;;;8.40;;
36351;SDS011;22382;44.768;17.206;2022-12-18T13:23:32;15.85;;;8.73;;
36351;SDS011;22382;44.768;17.206;2022-12-18T13:31:00;15.10;;;9.05;;
36351;SDS011;22382;44.768;17.206;2022-12-18T13:38:47;18.90;;;10.18;;
36351;SDS011;22382;44.768;17.206;2022-12-18T13:43:47;20.58;;;10.05;;
36351;SDS011;22382;44.768;17.206;2022-12-18T13:46:20;18.13;;;10.68;;
36351;SDS011;22382;44.768;17.206;2022-12-18T13:51:28;16.38;;;8.65;;
36351;SDS011;22382;44.768;17.206;2022-12-18T13:54:02;15.95;;;9.13;;
36351;SDS011;22382;44.768;17.206;2022-12-18T13:56:43;17.45;;;9.68;;
36351;SDS011;22382;44.768;17.206;2022-12-18T14:04:29;17.48;;;8.80;;
36351;SDS011;22382;44.768;17.206;2022-12-18T14:07:06;17.42;;;9.25;;
36351;SDS011;22382;44.768;17.206;2022-12-18T14:09:47;15.48;;;9.05;;
36351;SDS011;22382;44.768;17.206;2022-12-18T14:12:22;17.90;;;9.02;;
36351;SDS011;22382;44.768;17.206;2022-12-18T14:20:41;19.30;;;9.80;;
36351;SDS011;22382;44.768;17.206;2022-12-18T14:23:34;16.77;;;8.95;;
36351;SDS011;22382;44.768;17.206;2022-12-18T14:26:19;20.58;;;10.35;;
36351;SDS011;22382;44.768;17.206;2022-12-18T14:28:49;19.48;;;10.25;;
36351;SDS011;22382;44.768;17.206;2022-12-18T14:31:23;20.67;;;10.18;;
36351;SDS011;22382;44.768;17.206;2022-12-18T14:33:52;19.55;;;10.32;;
36351;SDS011;22382;44.768;17.206;2022-12-18T14:36:23;20.38;;;10.75;;
36351;SDS011;22382;44.768;17.206;2022-12-18T14:38:53;20.20;;;11.55;;
36351;SDS011;22382;44.768;17.206;2022-12-18T14:41:24;18.77;;;10.07;;
36351;SDS011;22382;44.768;17.206;2022-12-18T14:43:53;20.65;;;11.63;;
36351;SDS011;22382;44.768;17.206;2022-12-18T14:49:01;22.80;;;12.90;;
36351;SDS011;22382;44.768;17.206;2022-12-18T14:51:50;24.33;;;13.77;;
36351;SDS011;22382;44.768;17.206;2022-12-18T14:54:21;30.60;;;14.50;;
36351;SDS011;22382;44.768;17.206;2022-12-18T14:57:36;25.25;;;14.38;;
36351;SDS011;22382;44.768;17.206;2022-12-18T14:59:39;28.38;;;13.90;;
36351;SDS011;22382;44.768;17.206;2022-12-18T15:05:27;30.50;;;14.88;;
36351;SDS011;22382;44.768;17.206;2022-12-18T15:07:53;32.85;;;16.10;;
36351;SDS011;22382;44.768;17.206;2022-12-18T15:10:26;27.92;;;15.77;;
36351;SDS011;22382;44.768;17.206;2022-12-18T15:18:14;31.85;;;16.92;;
36351;SDS011;22382;44.768;17.206;2022-12-18T15:26:01;32.05;;;16.63;;
36351;SDS011;22382;44.768;17.206;2022-12-18T15:28:33;29.75;;;15.85;;
36351;SDS011;22382;44.768;17.206;2022-12-18T15:33:38;31.95;;;17.30;;
36351;SDS011;22382;44.768;17.206;2022-12-18T15:36:13;30.77;;;17.25;;
36351;SDS011;22382;44.768;17.206;2022-12-18T15:38:52;31.42;;;17.27;;
36351;SDS011;22382;44.768;17.206;2022-12-18T15:41:30;30.60;;;16.52;;
36351;SDS011;22382;44.768;17.206;2022-12-18T15:44:01;36.13;;;19.80;;
36351;SDS011;22382;44.768;17.206;2022-12-18T15:46:29;38.65;;;20.15;;
36351;SDS011;22382;44.768;17.206;2022-12-18T15:48:57;38.45;;;21.95;;
36351;SDS011;22382;44.768;17.206;2022-12-18T15:53:58;52.63;;;26.20;;
36351;SDS011;22382;44.768;17.206;2022-12-18T15:56:27;43.20;;;23.58;;
36351;SDS011;22382;44.768;17.206;2022-12-18T15:59:14;47.22;;;23.50;;
36351;SDS011;22382;44.768;17.206;2022-12-18T16:01:43;43.08;;;23.02;;
36351;SDS011;22382;44.768;17.206;2022-12-18T16:04:13;44.08;;;22.27;;
36351;SDS011;22382;44.768;17.206;2022-12-18T16:06:42;47.25;;;24.10;;
36351;SDS011;22382;44.768;17.206;2022-12-18T16:09:29;48.42;;;23.73;;
36351;SDS011;22382;44.768;17.206;2022-12-18T16:11:56;43.47;;;22.90;;
36351;SDS011;22382;44.768;17.206;2022-12-18T16:14:25;40.88;;;21.58;;
36351;SDS011;22382;44.768;17.206;2022-12-18T16:16:58;36.05;;;19.80;;
36351;SDS011;22382;44.768;17.206;2022-12-18T16:19:27;36.25;;;19.92;;
36351;SDS011;22382;44.768;17.206;2022-12-18T16:21:55;47.47;;;26.63;;
36351;SDS011;22382;44.768;17.206;2022-12-18T16:24:24;71.53;;;40.38;;
36351;SDS011;22382;44.768;17.206;2022-12-18T16:26:55;78.15;;;45.45;;
36351;SDS011;22382;44.768;17.206;2022-12-18T16:29:25;88.05;;;49.67;;
36351;SDS011;22382;44.768;17.206;2022-12-18T16:31:54;90.72;;;52.80;;
36351;SDS011;22382;44.768;17.206;2022-12-18T16:34:23;88.88;;;47.63;;
36351;SDS011;22382;44.768;17.206;2022-12-18T16:36:55;76.30;;;43.65;;
36351;SDS011;22382;44.768;17.206;2022-12-18T16:39:31;81.93;;;43.70;;
36351;SDS011;22382;44.768;17.206;2022-12-18T16:42:02;74.15;;;42.17;;
36351;SDS011;22382;44.768;17.206;2022-12-18T16:44:36;79.47;;;42.88;;
36351;SDS011;22382;44.768;17.206;2022-12-18T16:47:03;72.85;;;40.78;;
36351;SDS011;22382;44.768;17.206;2022-12-18T16:49:31;69.88;;;39.67;;
36351;SDS011;22382;44.768;17.206;2022-12-18T16:51:58;62.30;;;34.10;;
36351;SDS011;22382;44.768;17.206;2022-12-18T16:54:25;60.40;;;35.05;;
36351;SDS011;22382;44.768;17.206;2022-12-18T16:56:56;61.80;;;33.00;;
36351;SDS011;22382;44.768;17.206;2022-12-18T16:59:23;63.95;;;33.03;;
36351;SDS011;22382;44.768;17.206;2022-12-18T17:01:52;62.08;;;36.65;;